Aérodrome :
LOGIN :

S'inscrire | Disclaimer

   EN    FR    IT 

 










Légende :    VFR   VFR Marginal   IFR   IFR Intensif   IFR Très Intensif
Visi : 
Plafond : 
>= 8 km
>= 3000ft
5 à 8 km
1000 à 3000 ft
1500m à 5 km
500 à 1000 ft
800 à 1500m
200 à 500 ft
< 800m
< 200 ft
Symboles :   Orages  Brouillard  Fortes neiges  Fortes précipitations  Vent > 20 kt
SIGMETs :   Divers  Orages  Givrage  Turbulence  Onde Orograph.  Cendres Volcan.







- Altitude de l'aérodrome : 141 ft
- Code IATA : SKS


EKSP - Srydstrup Vojens

DERNIER METAR :
  • 221520Z 31005KT 240V350 CAVOK 19/10 Q1019

METARs EXPIRÉS :
  • 221450Z 30008KT 9999 FEW045 SCT200 19/08 Q1020
  • 221420Z 28007KT 260V340 9999 FEW045 SCT200 19/09 Q1020
  • 221350Z 29008KT 260V340 9999 FEW045 SCT200 19/10 Q1020
  • 221320Z 28008KT 250V330 9999 FEW045 SCT200 18/09 Q1021 NOSIG
  • 221250Z 28009KT 230V340 9999 FEW045 SCT200 18/09 Q1021 NOSIG

TAF TAF EKSP
Valide du 22 à 15h jusqu'au 23 à 12h UTC


221422Z 2215/2312 VRB05KT 9999 FEW030
Pas de NOTAMs connus pour ce terrain.



MET'MAP, la Météo Aéronautique d'un coup d'oeil ! - Copyright ORBIFLY Décembre 2007 - Disclaimer

ORBIFLY MET'MAP TEAM :

Programmation & Développement : Alexandra Zaïnal
Conception & Développement : Baudouin d'Aumeries
Co-Programmation & Développement : Marc-Olivier Méhu
Soutien technique & logistique : Manuel Goepfert

Contact : metmap@orbifly.com




SOURCES & CREDITS :

   NOAA